createdAt,value
2022-11-13T00:02:12.138Z,60.98
2022-11-13T00:07:34.932Z,60.90
2022-11-13T00:12:56.231Z,60.95
2022-11-13T00:18:17.572Z,60.93
2022-11-13T00:23:40.645Z,60.91
2022-11-13T00:29:03.497Z,61.02
2022-11-13T00:34:46.450Z,61.03
2022-11-13T00:40:09.272Z,61.16
2022-11-13T00:45:30.592Z,61.23
2022-11-13T00:50:52.214Z,61.33
2022-11-13T00:56:14.734Z,61.19
2022-11-13T01:01:36.876Z,61.29
2022-11-13T01:06:58.380Z,61.36
2022-11-13T01:12:21.123Z,61.33
2022-11-13T01:17:42.587Z,61.36
2022-11-13T01:23:04.836Z,61.35
2022-11-13T01:28:27.752Z,61.27
2022-11-13T01:33:50.507Z,61.33
2022-11-13T01:39:12.304Z,61.47
2022-11-13T01:44:50.151Z,61.22
2022-11-13T01:50:15.507Z,61.44
2022-11-13T01:55:37.284Z,61.76
2022-11-13T02:01:02.820Z,61.97
2022-11-13T02:06:26.541Z,62.09
2022-11-13T02:11:48.679Z,62.15
2022-11-13T02:17:16.617Z,62.47
2022-11-13T02:22:45.944Z,62.66
2022-11-13T02:28:08.670Z,62.89
2022-11-13T02:33:33.273Z,63.28
2022-11-13T02:38:57.058Z,63.38
2022-11-13T02:44:19.641Z,63.80
2022-11-13T02:49:41.181Z,64.26
2022-11-13T02:55:02.732Z,64.64
2022-11-13T03:00:25.855Z,65.01
2022-11-13T03:05:49.974Z,65.41
2022-11-13T03:11:12.676Z,65.70
2022-11-13T03:16:35.952Z,66.11
2022-11-13T03:21:57.410Z,66.50
2022-11-13T03:27:18.850Z,66.61
2022-11-13T03:32:41.693Z,66.70
2022-11-13T03:38:03.483Z,66.97
2022-11-13T03:43:25.077Z,67.44
2022-11-13T03:48:47.603Z,67.60
2022-11-13T03:54:09.224Z,68.04
2022-11-13T03:59:30.776Z,68.12
2022-11-13T04:04:53.970Z,68.32
2022-11-13T04:10:15.399Z,68.57
2022-11-13T04:15:37.008Z,68.63
2022-11-13T04:21:01.926Z,68.97
2022-11-13T04:26:23.422Z,69.14
2022-11-13T04:31:44.896Z,69.37
2022-11-13T04:37:07.698Z,69.67
2022-11-13T04:42:46.497Z,69.54
2022-11-13T04:48:08.196Z,70.05
2022-11-13T04:53:30.818Z,70.16
2022-11-13T04:58:52.643Z,70.21
2022-11-13T05:04:15.166Z,70.33
2022-11-13T05:09:37.904Z,70.71
2022-11-13T05:14:59.335Z,70.90
2022-11-13T05:20:20.944Z,71.06
2022-11-13T05:25:43.621Z,71.09
2022-11-13T05:31:07.101Z,71.16
2022-11-13T05:36:28.559Z,71.17
2022-11-13T05:41:51.313Z,71.35
2022-11-13T05:47:12.845Z,71.62
2022-11-13T05:52:34.443Z,71.63
2022-11-13T05:57:59.539Z,71.89
2022-11-13T06:03:20.952Z,71.92
2022-11-13T06:08:42.892Z,72.05
2022-11-13T06:14:05.719Z,72.02
2022-11-13T06:19:27.216Z,72.04
2022-11-13T06:24:48.839Z,72.36
2022-11-13T06:30:13.485Z,72.24
2022-11-13T06:35:35.142Z,72.40
2022-11-13T06:40:58.054Z,72.37
2022-11-13T06:46:23.348Z,72.50
2022-11-13T06:51:44.790Z,72.66
2022-11-13T06:57:06.313Z,72.63
2022-11-13T07:02:29.133Z,72.79
2022-11-13T07:07:50.659Z,72.61
2022-11-13T07:13:12.141Z,72.93
2022-11-13T07:18:35.503Z,72.78
2022-11-13T07:23:56.554Z,72.97
2022-11-13T07:29:18.051Z,73.22
2022-11-13T07:34:40.890Z,72.97
2022-11-13T07:40:02.395Z,73.13
2022-11-13T07:45:23.709Z,73.30
2022-11-13T07:50:46.199Z,73.27
2022-11-13T07:56:08.473Z,73.59
2022-11-13T08:01:29.919Z,73.44
2022-11-13T08:06:53.074Z,73.41
2022-11-13T08:12:14.409Z,72.79
2022-11-13T08:17:35.785Z,71.91
2022-11-13T08:23:00.225Z,70.91
2022-11-13T08:28:21.640Z,70.73
2022-11-13T08:33:43.953Z,71.79
2022-11-13T08:39:06.715Z,54.39
2022-11-13T08:44:27.861Z,51.68
2022-11-13T08:49:49.360Z,53.47
2022-11-13T08:55:12.122Z,56.00
2022-11-13T09:00:33.843Z,57.39
2022-11-13T09:05:55.138Z,58.38
2022-11-13T09:11:18.307Z,59.07
2022-11-13T09:16:39.552Z,60.04
2022-11-13T09:22:01.135Z,60.74
2022-11-13T09:27:23.946Z,61.26
2022-11-13T09:32:45.353Z,61.98
2022-11-13T09:38:11.478Z,62.30
2022-11-13T09:43:40.286Z,62.84
2022-11-13T09:49:05.498Z,63.38
2022-11-13T09:54:27.147Z,63.64
2022-11-13T09:59:56.592Z,64.02
2022-11-13T10:05:24.981Z,64.35
2022-11-13T10:10:55.582Z,64.68
2022-11-13T10:16:32.834Z,64.75
2022-11-13T10:22:19.597Z,64.97
2022-11-13T10:27:43.599Z,65.27
2022-11-13T10:33:09.151Z,65.43
2022-11-13T10:38:36.308Z,65.66
2022-11-13T10:44:03.782Z,65.69
2022-11-13T10:49:28.975Z,66.62
2022-11-13T10:54:51.104Z,67.09
2022-11-13T11:00:24.148Z,67.44
2022-11-13T11:06:01.285Z,67.71
2022-11-13T11:11:40.334Z,68.02
2022-11-13T11:17:05.313Z,68.13
2022-11-13T11:22:32.912Z,68.19
2022-11-13T11:28:01.860Z,68.27
2022-11-13T11:33:31.627Z,68.40
2022-11-13T11:39:01.756Z,68.47
2022-11-13T11:44:30.583Z,70.30
2022-11-13T11:49:51.851Z,70.06
2022-11-13T11:55:36.212Z,69.41
2022-11-13T12:01:05.608Z,69.65
2022-11-13T12:06:40.970Z,69.53
2022-11-13T12:12:14.364Z,69.63
2022-11-13T12:17:49.462Z,69.14
2022-11-13T12:23:25.851Z,68.00
2022-11-13T12:28:55.067Z,66.10
2022-11-13T12:34:26.470Z,64.06
2022-11-13T12:39:56.840Z,60.96
2022-11-13T12:45:27.431Z,59.54
2022-11-13T12:50:59.276Z,58.64
2022-11-13T12:56:32.573Z,58.06
2022-11-13T13:02:03.852Z,57.91
2022-11-13T13:07:48.540Z,57.25
2022-11-13T13:13:24.260Z,57.46
2022-11-13T13:18:47.765Z,58.07
2022-11-13T13:24:11.405Z,57.67
2022-11-13T13:29:34.844Z,56.86
2022-11-13T13:35:05.363Z,56.48
2022-11-13T13:40:37.086Z,56.41
2022-11-13T13:46:07.272Z,56.69
2022-11-13T13:51:35.352Z,57.52
2022-11-13T13:56:59.330Z,57.67
2022-11-13T14:02:23.124Z,58.36
2022-11-13T14:07:47.980Z,58.63
2022-11-13T14:13:13.470Z,59.43
2022-11-13T14:18:36.274Z,60.10
2022-11-13T14:24:01.388Z,60.63
2022-11-13T14:29:33.021Z,61.09
2022-11-13T14:34:58.441Z,61.37
2022-11-13T14:40:26.938Z,61.82
2022-11-13T14:45:57.479Z,62.23
2022-11-13T14:51:25.292Z,62.75
2022-11-13T14:56:48.165Z,62.99
2022-11-13T15:02:12.108Z,63.14
2022-11-13T15:07:35.310Z,63.44
2022-11-13T15:12:58.236Z,63.52
2022-11-13T15:18:20.887Z,55.37
2022-11-13T15:23:42.468Z,58.95
2022-11-13T15:29:06.473Z,61.92
2022-11-13T15:34:28.149Z,62.30
2022-11-13T15:39:49.477Z,62.44
2022-11-13T15:45:17.088Z,62.61
2022-11-13T15:50:38.268Z,63.02
2022-11-13T15:56:02.991Z,63.37
2022-11-13T16:01:25.793Z,63.69
2022-11-13T16:06:47.640Z,64.11
2022-11-13T16:12:10.737Z,64.49
2022-11-13T16:17:40.388Z,64.48
2022-11-13T16:23:01.612Z,64.26
2022-11-13T16:28:23.284Z,64.12
2022-11-13T16:33:46.127Z,63.98
2022-11-13T16:39:13.311Z,63.68
2022-11-13T16:44:34.841Z,63.66
2022-11-13T16:49:58.422Z,63.55
2022-11-13T16:55:19.613Z,63.58
2022-11-13T17:00:41.210Z,63.38
2022-11-13T17:06:03.869Z,63.50
2022-11-13T17:11:26.921Z,63.41
2022-11-13T17:16:48.402Z,63.23
2022-11-13T17:22:12.166Z,63.11
2022-11-13T17:27:33.628Z,63.05
2022-11-13T17:32:55.199Z,63.11
2022-11-13T17:38:18.268Z,62.87
2022-11-13T17:43:41.224Z,62.96
2022-11-13T17:49:02.501Z,62.65
2022-11-13T17:54:25.758Z,62.71
2022-11-13T17:59:47.293Z,62.68
2022-11-13T18:05:09.869Z,62.38
2022-11-13T18:10:32.331Z,62.17
2022-11-13T18:15:54.216Z,62.17
2022-11-13T18:21:22.792Z,61.96
2022-11-13T18:26:46.574Z,61.80
2022-11-13T18:32:07.754Z,61.51
2022-11-13T18:37:30.280Z,61.39
2022-11-13T18:42:53.127Z,61.41
2022-11-13T18:48:14.396Z,61.18
2022-11-13T18:53:37.565Z,61.04
2022-11-13T18:59:01.475Z,60.88
2022-11-13T19:04:23.934Z,60.76
2022-11-13T19:09:49.950Z,60.63
2022-11-13T19:15:12.862Z,60.45
2022-11-13T19:20:34.289Z,60.38
2022-11-13T19:25:55.781Z,60.88
2022-11-13T19:31:21.147Z,60.99
2022-11-13T19:36:45.011Z,61.26
2022-11-13T19:42:06.909Z,61.10
2022-11-13T19:47:29.827Z,61.19
2022-11-13T19:52:51.503Z,61.23
2022-11-13T19:58:12.984Z,61.20
2022-11-13T20:03:35.842Z,60.93
2022-11-13T20:08:58.647Z,60.90
2022-11-13T20:14:20.089Z,60.74
2022-11-13T20:19:43.371Z,60.46
2022-11-13T20:25:04.846Z,60.46
2022-11-13T20:30:26.010Z,60.38
2022-11-13T20:35:55.527Z,60.28
2022-11-13T20:41:17.190Z,59.93
2022-11-13T20:46:39.067Z,60.19
2022-11-13T20:52:02.014Z,60.19
2022-11-13T20:57:23.725Z,60.14
2022-11-13T21:02:45.221Z,59.97
2022-11-13T21:08:11.039Z,59.83
2022-11-13T21:13:32.548Z,59.73
2022-11-13T21:18:55.376Z,59.82
2022-11-13T21:24:18.352Z,59.86
2022-11-13T21:29:39.748Z,59.87
2022-11-13T21:35:01.291Z,59.52
2022-11-13T21:40:24.252Z,59.64
2022-11-13T21:45:45.854Z,59.54
2022-11-13T21:51:07.500Z,59.66
2022-11-13T21:56:33.156Z,59.79
2022-11-13T22:01:54.371Z,59.95
2022-11-13T22:07:15.939Z,59.90
2022-11-13T22:12:38.789Z,60.08
2022-11-13T22:18:00.187Z,60.44
2022-11-13T22:23:22.813Z,60.51
2022-11-13T22:28:46.985Z,60.75
2022-11-13T22:34:09.439Z,60.94
2022-11-13T22:39:30.737Z,61.00
2022-11-13T22:44:56.319Z,61.25
2022-11-13T22:50:18.393Z,61.46
2022-11-13T22:55:39.762Z,61.45
2022-11-13T23:01:10.370Z,61.78
2022-11-13T23:06:33.736Z,61.98
2022-11-13T23:11:55.730Z,62.25
2022-11-13T23:17:18.650Z,62.66
2022-11-13T23:22:40.217Z,62.79
2022-11-13T23:28:01.488Z,63.31
2022-11-13T23:33:24.638Z,63.36
2022-11-13T23:38:46.536Z,63.78
2022-11-13T23:44:09.635Z,64.15
2022-11-13T23:49:32.879Z,64.37
2022-11-13T23:54:54.364Z,64.80
